Startpagina
METAR-TAF:

METAR-TAF

Vliegvelden :

Vliegbasis Volkel

Uden, Nederland

breedte: 51-39N, lengte: 005-42E, hoogte: 22 m

Actueel weer

Dit bericht is 11 minuten geleden gemaakt, om 00:55 UTC
Wind 3 kt uit het westen
Temperatuur 8°C
Vochtigheid 81%
Druk 1025 hPa
Zicht 10 km of meer
Weinig wolken op 36000 ft

METAR: EHVK 180055Z AUTO 28003KT 9999 FEW360 08/05 Q1025 BLU

Tijdstip: 03:06 (01:06 UTC)

Verwachting

Dit bericht is 4 uur en het 35 minuten geleden gemaakt, om 20:31 UTC
Verwachting geldig van 17 om 21 UTC tot 18 om 09 UTC
Wind 4 kt uit het westen
Zicht 10 km of meer
geen wolken onder 1500 m en geen cumulonimbus

TAF: EHVK 172031Z 1721/1809 28004KT CAVOK

Waarnemingen en weersverwachtingen van meer dan 4000 vliegvelden (METAR en TAF).

De beschikbare stations zijn de gele en rode punten op de kaart.

Ga met uw muis naar het station om de naam te zien.

Klik dan om waarnemingen en weersverwachtingen te zien.

kaart wijzigen: klik op de groene knoppen met een zwart kruis om in te zoomen, op de groene knop met een streepje om uit te zoomen of op de groene pijlen voor aangrenzende kaarten.


METAR-TAF: